sensor_id;sensor_type;location;lat;lon;timestamp;pressure;altitude;pressure_sealevel;temperature;humidity
60015;BME280;45867;52.480;6.056;2023-02-12T00:00:32;103809.34;;;4.69;100.00
60015;BME280;45867;52.480;6.056;2023-02-12T00:02:57;103814.72;;;4.59;100.00
60015;BME280;45867;52.480;6.056;2023-02-12T00:05:23;103815.31;;;4.53;100.00
60015;BME280;45867;52.480;6.056;2023-02-12T00:07:50;103823.50;;;4.50;100.00
60015;BME280;45867;52.480;6.056;2023-02-12T00:10:15;103820.03;;;4.50;100.00
60015;BME280;45867;52.480;6.056;2023-02-12T00:12:41;103826.72;;;4.44;100.00
60015;BME280;45867;52.480;6.056;2023-02-12T00:15:07;103828.09;;;4.48;100.00
60015;BME280;45867;52.480;6.056;2023-02-12T00:17:33;103829.50;;;4.42;100.00
60015;BME280;45867;52.480;6.056;2023-02-12T00:19:58;103827.03;;;4.41;100.00
60015;BME280;45867;52.480;6.056;2023-02-12T00:22:23;103830.25;;;4.35;100.00
60015;BME280;45867;52.480;6.056;2023-02-12T00:24:49;103829.44;;;4.34;100.00
60015;BME280;45867;52.480;6.056;2023-02-12T00:27:14;103832.50;;;4.30;100.00
60015;BME280;45867;52.480;6.056;2023-02-12T00:29:40;103829.38;;;4.26;100.00
60015;BME280;45867;52.480;6.056;2023-02-12T00:32:05;103818.09;;;4.16;100.00
60015;BME280;45867;52.480;6.056;2023-02-12T00:34:31;103830.63;;;4.22;100.00
60015;BME280;45867;52.480;6.056;2023-02-12T00:36:57;103821.47;;;4.08;100.00
60015;BME280;45867;52.480;6.056;2023-02-12T00:39:22;103816.97;;;4.00;100.00
60015;BME280;45867;52.480;6.056;2023-02-12T00:41:48;103836.00;;;4.03;100.00
60015;BME280;45867;52.480;6.056;2023-02-12T00:44:13;103835.25;;;3.92;100.00
60015;BME280;45867;52.480;6.056;2023-02-12T00:46:38;103834.31;;;3.84;100.00
60015;BME280;45867;52.480;6.056;2023-02-12T00:49:04;103838.06;;;3.81;100.00
60015;BME280;45867;52.480;6.056;2023-02-12T00:51:32;103823.34;;;3.70;100.00
60015;BME280;45867;52.480;6.056;2023-02-12T00:53:58;103836.47;;;3.70;100.00
60015;BME280;45867;52.480;6.056;2023-02-12T00:56:23;103831.50;;;3.67;100.00
60015;BME280;45867;52.480;6.056;2023-02-12T00:58:49;103830.81;;;3.65;100.00
60015;BME280;45867;52.480;6.056;2023-02-12T01:01:15;103833.75;;;3.62;100.00
60015;BME280;45867;52.480;6.056;2023-02-12T01:03:40;103836.66;;;3.59;100.00
60015;BME280;45867;52.480;6.056;2023-02-12T01:06:06;103830.19;;;3.53;100.00
60015;BME280;45867;52.480;6.056;2023-02-12T01:08:32;103840.75;;;3.44;100.00
60015;BME280;45867;52.480;6.056;2023-02-12T01:11:00;103844.22;;;3.34;100.00
60015;BME280;45867;52.480;6.056;2023-02-12T01:13:26;103837.75;;;3.29;100.00
60015;BME280;45867;52.480;6.056;2023-02-12T01:16:13;103837.91;;;3.27;100.00
60015;BME280;45867;52.480;6.056;2023-02-12T01:18:39;103846.31;;;3.21;100.00
60015;BME280;45867;52.480;6.056;2023-02-12T01:21:19;103846.38;;;3.11;100.00
60015;BME280;45867;52.480;6.056;2023-02-12T01:23:45;103844.41;;;3.14;100.00
60015;BME280;45867;52.480;6.056;2023-02-12T01:26:11;103837.97;;;2.98;100.00
60015;BME280;45867;52.480;6.056;2023-02-12T01:28:38;103844.91;;;2.89;100.00
60015;BME280;45867;52.480;6.056;2023-02-12T01:31:13;103842.16;;;2.81;100.00
60015;BME280;45867;52.480;6.056;2023-02-12T01:33:39;103841.44;;;2.70;100.00
60015;BME280;45867;52.480;6.056;2023-02-12T01:36:06;103840.38;;;2.62;100.00
60015;BME280;45867;52.480;6.056;2023-02-12T01:38:32;103841.47;;;2.60;100.00
60015;BME280;45867;52.480;6.056;2023-02-12T01:41:02;103834.84;;;2.56;100.00
60015;BME280;45867;52.480;6.056;2023-02-12T01:43:28;103836.94;;;2.62;100.00
60015;BME280;45867;52.480;6.056;2023-02-12T01:45:53;103838.16;;;2.67;100.00
60015;BME280;45867;52.480;6.056;2023-02-12T01:48:21;103840.91;;;2.66;100.00
60015;BME280;45867;52.480;6.056;2023-02-12T01:50:48;103848.09;;;2.54;100.00
60015;BME280;45867;52.480;6.056;2023-02-12T01:53:15;103847.25;;;2.44;100.00
60015;BME280;45867;52.480;6.056;2023-02-12T01:55:47;103857.03;;;2.42;100.00
60015;BME280;45867;52.480;6.056;2023-02-12T01:58:13;103845.72;;;2.32;100.00
60015;BME280;45867;52.480;6.056;2023-02-12T02:00:39;103839.66;;;2.21;100.00
60015;BME280;45867;52.480;6.056;2023-02-12T02:03:05;103840.22;;;2.25;100.00
60015;BME280;45867;52.480;6.056;2023-02-12T02:08:05;103840.91;;;2.37;100.00
60015;BME280;45867;52.480;6.056;2023-02-12T02:10:30;103837.19;;;2.39;100.00
60015;BME280;45867;52.480;6.056;2023-02-12T02:12:56;103832.09;;;2.28;100.00
60015;BME280;45867;52.480;6.056;2023-02-12T02:15:46;103829.75;;;2.25;100.00
60015;BME280;45867;52.480;6.056;2023-02-12T02:21:23;103831.38;;;2.26;100.00
60015;BME280;45867;52.480;6.056;2023-02-12T02:32:07;103832.38;;;2.35;100.00
60015;BME280;45867;52.480;6.056;2023-02-12T02:34:39;103827.81;;;2.37;100.00
60015;BME280;45867;52.480;6.056;2023-02-12T02:37:19;103834.84;;;2.36;100.00
60015;BME280;45867;52.480;6.056;2023-02-12T02:40:16;103831.66;;;2.42;100.00
60015;BME280;45867;52.480;6.056;2023-02-12T02:42:43;103827.00;;;2.46;100.00
60015;BME280;45867;52.480;6.056;2023-02-12T02:47:52;103809.78;;;2.53;100.00
60015;BME280;45867;52.480;6.056;2023-02-12T02:50:22;103810.19;;;2.58;100.00
60015;BME280;45867;52.480;6.056;2023-02-12T02:55:50;103818.59;;;2.42;100.00
60015;BME280;45867;52.480;6.056;2023-02-12T02:58:25;103812.25;;;2.35;100.00
60015;BME280;45867;52.480;6.056;2023-02-12T03:01:01;103807.97;;;2.34;100.00
60015;BME280;45867;52.480;6.056;2023-02-12T03:03:41;103813.91;;;2.36;100.00
60015;BME280;45867;52.480;6.056;2023-02-12T03:06:40;103816.25;;;2.39;100.00
60015;BME280;45867;52.480;6.056;2023-02-12T03:09:26;103817.91;;;2.31;100.00
60015;BME280;45867;52.480;6.056;2023-02-12T03:12:00;103809.50;;;2.27;100.00
60015;BME280;45867;52.480;6.056;2023-02-12T03:14:32;103813.09;;;2.36;100.00
60015;BME280;45867;52.480;6.056;2023-02-12T03:17:04;103798.88;;;2.29;100.00
60015;BME280;45867;52.480;6.056;2023-02-12T03:19:53;103805.50;;;2.23;100.00
60015;BME280;45867;52.480;6.056;2023-02-12T03:22:29;103808.53;;;2.28;100.00
60015;BME280;45867;52.480;6.056;2023-02-12T03:27:31;103811.69;;;2.32;100.00
60015;BME280;45867;52.480;6.056;2023-02-12T03:29:58;103809.50;;;2.27;100.00
60015;BME280;45867;52.480;6.056;2023-02-12T03:32:43;103807.44;;;2.31;100.00
60015;BME280;45867;52.480;6.056;2023-02-12T03:35:23;103793.78;;;2.17;100.00
60015;BME280;45867;52.480;6.056;2023-02-12T03:37:58;103805.94;;;2.18;100.00
60015;BME280;45867;52.480;6.056;2023-02-12T03:40:31;103808.25;;;2.12;100.00
60015;BME280;45867;52.480;6.056;2023-02-12T03:43:25;103802.34;;;2.19;100.00
60015;BME280;45867;52.480;6.056;2023-02-12T03:48:56;103809.34;;;2.29;100.00
60015;BME280;45867;52.480;6.056;2023-02-12T03:51:36;103806.88;;;2.08;100.00
60015;BME280;45867;52.480;6.056;2023-02-12T03:54:03;103811.97;;;1.99;100.00
60015;BME280;45867;52.480;6.056;2023-02-12T03:56:45;103813.47;;;2.02;100.00
60015;BME280;45867;52.480;6.056;2023-02-12T03:59:19;103805.50;;;2.04;100.00
60015;BME280;45867;52.480;6.056;2023-02-12T04:01:46;103817.47;;;2.06;100.00
60015;BME280;45867;52.480;6.056;2023-02-12T04:04:12;103813.19;;;1.95;100.00
60015;BME280;45867;52.480;6.056;2023-02-12T04:06:38;103811.13;;;1.89;100.00
60015;BME280;45867;52.480;6.056;2023-02-12T04:09:09;103819.38;;;1.94;100.00
60015;BME280;45867;52.480;6.056;2023-02-12T04:20:24;103833.44;;;2.03;100.00
60015;BME280;45867;52.480;6.056;2023-02-12T04:23:12;103838.28;;;2.08;100.00
60015;BME280;45867;52.480;6.056;2023-02-12T04:31:56;103843.13;;;2.41;100.00
60015;BME280;45867;52.480;6.056;2023-02-12T04:37:25;103849.44;;;2.58;100.00
60015;BME280;45867;52.480;6.056;2023-02-12T04:39:53;103848.22;;;2.62;100.00
60015;BME280;45867;52.480;6.056;2023-02-12T04:42:19;103853.72;;;2.69;100.00
60015;BME280;45867;52.480;6.056;2023-02-12T04:44:45;103862.00;;;2.74;100.00
60015;BME280;45867;52.480;6.056;2023-02-12T04:47:12;103850.94;;;2.80;100.00
60015;BME280;45867;52.480;6.056;2023-02-12T04:49:38;103853.28;;;2.93;100.00
60015;BME280;45867;52.480;6.056;2023-02-12T04:52:03;103853.41;;;3.01;100.00
60015;BME280;45867;52.480;6.056;2023-02-12T04:54:29;103855.91;;;3.03;100.00
60015;BME280;45867;52.480;6.056;2023-02-12T04:56:54;103844.72;;;3.01;100.00
60015;BME280;45867;52.480;6.056;2023-02-12T04:59:19;103858.53;;;3.03;100.00
60015;BME280;45867;52.480;6.056;2023-02-12T05:01:45;103852.00;;;3.07;100.00
60015;BME280;45867;52.480;6.056;2023-02-12T05:04:13;103851.72;;;3.10;100.00
60015;BME280;45867;52.480;6.056;2023-02-12T05:06:40;103845.53;;;3.11;100.00
60015;BME280;45867;52.480;6.056;2023-02-12T05:09:06;103836.00;;;3.10;100.00
60015;BME280;45867;52.480;6.056;2023-02-12T05:11:32;103849.22;;;3.18;100.00
60015;BME280;45867;52.480;6.056;2023-02-12T05:13:58;103850.06;;;3.19;100.00
60015;BME280;45867;52.480;6.056;2023-02-12T05:16:26;103856.38;;;3.26;100.00
60015;BME280;45867;52.480;6.056;2023-02-12T05:18:51;103858.28;;;3.33;100.00
60015;BME280;45867;52.480;6.056;2023-02-12T05:21:17;103853.28;;;3.40;100.00
60015;BME280;45867;52.480;6.056;2023-02-12T05:23:42;103852.88;;;3.45;100.00
60015;BME280;45867;52.480;6.056;2023-02-12T05:26:13;103862.09;;;3.49;100.00
60015;BME280;45867;52.480;6.056;2023-02-12T05:28:39;103860.84;;;3.53;100.00
60015;BME280;45867;52.480;6.056;2023-02-12T05:31:07;103862.50;;;3.54;100.00
60015;BME280;45867;52.480;6.056;2023-02-12T05:33:33;103861.53;;;3.55;100.00
60015;BME280;45867;52.480;6.056;2023-02-12T05:36:10;103856.59;;;3.52;100.00
60015;BME280;45867;52.480;6.056;2023-02-12T05:38:35;103861.34;;;3.66;100.00
60015;BME280;45867;52.480;6.056;2023-02-12T05:41:09;103858.56;;;3.68;100.00
60015;BME280;45867;52.480;6.056;2023-02-12T05:43:36;103850.41;;;3.71;100.00
60015;BME280;45867;52.480;6.056;2023-02-12T05:46:03;103849.28;;;3.73;100.00
60015;BME280;45867;52.480;6.056;2023-02-12T05:48:29;103850.16;;;3.64;100.00
60015;BME280;45867;52.480;6.056;2023-02-12T05:51:01;103865.56;;;3.77;100.00
60015;BME280;45867;52.480;6.056;2023-02-12T05:53:26;103865.28;;;3.80;100.00
60015;BME280;45867;52.480;6.056;2023-02-12T05:55:52;103869.53;;;3.81;100.00
60015;BME280;45867;52.480;6.056;2023-02-12T05:58:17;103857.25;;;3.82;100.00
60015;BME280;45867;52.480;6.056;2023-02-12T06:00:42;103863.88;;;3.86;100.00
60015;BME280;45867;52.480;6.056;2023-02-12T06:03:08;103858.31;;;3.89;100.00
60015;BME280;45867;52.480;6.056;2023-02-12T06:05:33;103865.47;;;3.96;100.00
60015;BME280;45867;52.480;6.056;2023-02-12T06:07:59;103870.19;;;3.93;100.00
60015;BME280;45867;52.480;6.056;2023-02-12T06:10:24;103866.97;;;3.99;100.00
60015;BME280;45867;52.480;6.056;2023-02-12T06:12:53;103849.72;;;3.96;100.00
60015;BME280;45867;52.480;6.056;2023-02-12T06:15:18;103858.66;;;4.04;100.00
60015;BME280;45867;52.480;6.056;2023-02-12T06:17:43;103873.53;;;4.13;100.00
60015;BME280;45867;52.480;6.056;2023-02-12T06:20:09;103868.78;;;4.16;100.00
60015;BME280;45867;52.480;6.056;2023-02-12T06:22:34;103864.75;;;4.22;100.00
60015;BME280;45867;52.480;6.056;2023-02-12T06:25:04;103868.75;;;4.26;100.00
60015;BME280;45867;52.480;6.056;2023-02-12T06:27:32;103858.81;;;4.20;100.00
60015;BME280;45867;52.480;6.056;2023-02-12T06:29:58;103856.75;;;4.23;100.00
60015;BME280;45867;52.480;6.056;2023-02-12T06:32:23;103838.81;;;4.19;100.00
60015;BME280;45867;52.480;6.056;2023-02-12T06:34:48;103846.69;;;4.19;100.00
60015;BME280;45867;52.480;6.056;2023-02-12T06:37:14;103859.75;;;4.29;100.00
60015;BME280;45867;52.480;6.056;2023-02-12T06:39:39;103864.81;;;4.30;100.00
60015;BME280;45867;52.480;6.056;2023-02-12T06:42:05;103866.34;;;4.33;100.00
60015;BME280;45867;52.480;6.056;2023-02-12T06:44:30;103869.78;;;4.33;100.00
60015;BME280;45867;52.480;6.056;2023-02-12T06:46:55;103862.88;;;4.32;100.00
60015;BME280;45867;52.480;6.056;2023-02-12T06:49:22;103865.22;;;4.35;100.00
60015;BME280;45867;52.480;6.056;2023-02-12T06:51:48;103858.53;;;4.41;100.00
60015;BME280;45867;52.480;6.056;2023-02-12T06:54:14;103871.22;;;4.45;100.00
60015;BME280;45867;52.480;6.056;2023-02-12T06:56:40;103853.59;;;4.38;100.00
60015;BME280;45867;52.480;6.056;2023-02-12T06:59:06;103865.53;;;4.50;100.00
60015;BME280;45867;52.480;6.056;2023-02-12T07:01:31;103865.53;;;4.50;100.00
60015;BME280;45867;52.480;6.056;2023-02-12T07:03:59;103877.22;;;4.56;100.00
60015;BME280;45867;52.480;6.056;2023-02-12T07:06:27;103873.31;;;4.60;100.00
60015;BME280;45867;52.480;6.056;2023-02-12T07:08:55;103876.75;;;4.60;100.00
60015;BME280;45867;52.480;6.056;2023-02-12T07:11:25;103880.88;;;4.63;100.00
60015;BME280;45867;52.480;6.056;2023-02-12T07:13:51;103881.69;;;4.63;100.00
60015;BME280;45867;52.480;6.056;2023-02-12T07:16:17;103887.81;;;4.64;100.00
60015;BME280;45867;52.480;6.056;2023-02-12T07:18:43;103867.69;;;4.55;100.00
60015;BME280;45867;52.480;6.056;2023-02-12T07:21:10;103886.38;;;4.70;100.00
60015;BME280;45867;52.480;6.056;2023-02-12T07:23:37;103885.75;;;4.76;100.00
60015;BME280;45867;52.480;6.056;2023-02-12T07:26:05;103892.34;;;4.80;100.00
60015;BME280;45867;52.480;6.056;2023-02-12T07:28:32;103893.72;;;4.84;100.00
60015;BME280;45867;52.480;6.056;2023-02-12T07:31:07;103894.41;;;4.86;100.00
60015;BME280;45867;52.480;6.056;2023-02-12T07:33:34;103891.75;;;4.86;100.00
60015;BME280;45867;52.480;6.056;2023-02-12T07:36:00;103901.66;;;4.92;100.00
60015;BME280;45867;52.480;6.056;2023-02-12T07:38:26;103895.03;;;4.88;100.00
60015;BME280;45867;52.480;6.056;2023-02-12T07:40:52;103904.28;;;4.92;100.00
60015;BME280;45867;52.480;6.056;2023-02-12T07:43:17;103906.09;;;4.92;100.00
60015;BME280;45867;52.480;6.056;2023-02-12T07:45:43;103910.53;;;4.91;100.00
60015;BME280;45867;52.480;6.056;2023-02-12T07:48:08;103910.22;;;4.94;100.00
60015;BME280;45867;52.480;6.056;2023-02-12T07:50:33;103913.38;;;4.98;100.00
60015;BME280;45867;52.480;6.056;2023-02-12T07:52:59;103918.16;;;5.02;100.00
60015;BME280;45867;52.480;6.056;2023-02-12T07:55:24;103912.53;;;4.97;100.00
60015;BME280;45867;52.480;6.056;2023-02-12T07:57:50;103912.25;;;5.00;100.00
60015;BME280;45867;52.480;6.056;2023-02-12T08:00:16;103918.69;;;5.06;100.00
60015;BME280;45867;52.480;6.056;2023-02-12T08:02:41;103916.19;;;5.04;100.00
60015;BME280;45867;52.480;6.056;2023-02-12T08:05:07;103918.53;;;5.07;100.00
60015;BME280;45867;52.480;6.056;2023-02-12T08:07:32;103927.75;;;5.11;100.00
60015;BME280;45867;52.480;6.056;2023-02-12T08:09:58;103926.50;;;5.16;100.00
60015;BME280;45867;52.480;6.056;2023-02-12T08:12:23;103927.81;;;5.20;100.00
60015;BME280;45867;52.480;6.056;2023-02-12T08:14:48;103932.75;;;5.23;100.00
60015;BME280;45867;52.480;6.056;2023-02-12T08:17:14;103939.53;;;5.25;100.00
60015;BME280;45867;52.480;6.056;2023-02-12T08:19:40;103941.69;;;5.30;100.00
60015;BME280;45867;52.480;6.056;2023-02-12T08:22:06;103935.44;;;5.31;100.00
60015;BME280;45867;52.480;6.056;2023-02-12T08:24:31;103940.25;;;5.36;100.00
60015;BME280;45867;52.480;6.056;2023-02-12T08:26:57;103943.41;;;5.39;100.00
60015;BME280;45867;52.480;6.056;2023-02-12T08:29:28;103935.81;;;5.36;100.00
60015;BME280;45867;52.480;6.056;2023-02-12T08:32:00;103940.00;;;5.47;100.00
60015;BME280;45867;52.480;6.056;2023-02-12T08:34:31;103946.44;;;5.52;100.00
60015;BME280;45867;52.480;6.056;2023-02-12T08:36:58;103943.94;;;5.51;100.00
60015;BME280;45867;52.480;6.056;2023-02-12T08:39:25;103937.06;;;5.50;100.00
60015;BME280;45867;52.480;6.056;2023-02-12T08:41:55;103953.56;;;5.60;100.00
60015;BME280;45867;52.480;6.056;2023-02-12T08:44:21;103957.38;;;5.66;100.00
60015;BME280;45867;52.480;6.056;2023-02-12T08:46:49;103957.72;;;5.71;100.00
60015;BME280;45867;52.480;6.056;2023-02-12T08:49:18;103957.25;;;5.75;100.00
60015;BME280;45867;52.480;6.056;2023-02-12T08:51:46;103966.50;;;5.79;100.00
60015;BME280;45867;52.480;6.056;2023-02-12T08:54:15;103954.81;;;5.82;100.00
60015;BME280;45867;52.480;6.056;2023-02-12T08:56:42;103952.88;;;5.84;100.00
60015;BME280;45867;52.480;6.056;2023-02-12T08:59:10;103963.75;;;5.89;100.00
60015;BME280;45867;52.480;6.056;2023-02-12T09:01:37;103952.69;;;5.86;100.00
60015;BME280;45867;52.480;6.056;2023-02-12T09:04:04;103972.28;;;5.91;100.00
60015;BME280;45867;52.480;6.056;2023-02-12T09:06:32;103968.25;;;5.97;100.00
60015;BME280;45867;52.480;6.056;2023-02-12T09:08:57;103971.41;;;6.00;100.00
60015;BME280;45867;52.480;6.056;2023-02-12T09:11:25;103970.25;;;6.03;100.00
60015;BME280;45867;52.480;6.056;2023-02-12T09:13:56;103959.91;;;6.10;100.00
60015;BME280;45867;52.480;6.056;2023-02-12T09:16:24;103974.75;;;6.19;100.00
60015;BME280;45867;52.480;6.056;2023-02-12T09:18:50;103978.06;;;6.21;100.00
60015;BME280;45867;52.480;6.056;2023-02-12T09:21:18;103959.28;;;6.24;100.00
60015;BME280;45867;52.480;6.056;2023-02-12T09:23:44;103970.03;;;6.31;100.00
60015;BME280;45867;52.480;6.056;2023-02-12T09:26:12;103955.53;;;6.35;100.00
60015;BME280;45867;52.480;6.056;2023-02-12T09:28:39;103966.91;;;6.35;100.00
60015;BME280;45867;52.480;6.056;2023-02-12T09:31:10;103957.84;;;6.38;100.00
60015;BME280;45867;52.480;6.056;2023-02-12T09:33:36;103958.88;;;6.53;100.00
60015;BME280;45867;52.480;6.056;2023-02-12T09:36:05;103957.25;;;6.52;100.00
60015;BME280;45867;52.480;6.056;2023-02-12T09:38:31;103960.53;;;6.62;100.00
60015;BME280;45867;52.480;6.056;2023-02-12T09:43:52;103954.47;;;6.86;100.00
60015;BME280;45867;52.480;6.056;2023-02-12T09:46:26;103952.50;;;6.88;100.00
60015;BME280;45867;52.480;6.056;2023-02-12T09:49:01;103942.63;;;6.99;100.00
60015;BME280;45867;52.480;6.056;2023-02-12T09:51:31;103954.81;;;7.08;100.00
60015;BME280;45867;52.480;6.056;2023-02-12T09:54:15;103950.19;;;7.26;100.00
60015;BME280;45867;52.480;6.056;2023-02-12T09:56:44;103941.28;;;7.11;100.00
60015;BME280;45867;52.480;6.056;2023-02-12T09:59:18;103950.34;;;7.25;100.00
60015;BME280;45867;52.480;6.056;2023-02-12T10:01:47;103941.94;;;7.29;100.00
60015;BME280;45867;52.480;6.056;2023-02-12T10:04:13;103953.28;;;7.38;100.00
60015;BME280;45867;52.480;6.056;2023-02-12T10:06:51;103950.84;;;7.37;100.00
60015;BME280;45867;52.480;6.056;2023-02-12T10:09:52;103962.69;;;7.41;100.00
60015;BME280;45867;52.480;6.056;2023-02-12T10:12:30;103963.50;;;7.41;100.00
60015;BME280;45867;52.480;6.056;2023-02-12T10:17:57;103960.38;;;7.38;100.00
60015;BME280;45867;52.480;6.056;2023-02-12T10:20:51;103971.75;;;7.46;100.00
60015;BME280;45867;52.480;6.056;2023-02-12T10:23:27;103971.91;;;7.53;100.00
60015;BME280;45867;52.480;6.056;2023-02-12T10:26:04;103964.28;;;7.66;100.00
60015;BME280;45867;52.480;6.056;2023-02-12T10:28:35;103970.84;;;7.78;100.00
60015;BME280;45867;52.480;6.056;2023-02-12T10:31:07;103980.25;;;7.81;100.00
60015;BME280;45867;52.480;6.056;2023-02-12T10:33:43;103980.59;;;7.78;100.00
60015;BME280;45867;52.480;6.056;2023-02-12T10:41:39;103984.66;;;7.97;100.00
60015;BME280;45867;52.480;6.056;2023-02-12T10:44:09;103982.03;;;7.89;100.00
60015;BME280;45867;52.480;6.056;2023-02-12T10:46:35;103987.31;;;7.97;100.00
60015;BME280;45867;52.480;6.056;2023-02-12T10:49:02;103997.69;;;7.98;100.00
60015;BME280;45867;52.480;6.056;2023-02-12T10:54:34;103988.38;;;8.19;100.00
60015;BME280;45867;52.480;6.056;2023-02-12T10:57:26;103989.31;;;8.26;100.00
60015;BME280;45867;52.480;6.056;2023-02-12T10:59:55;103985.59;;;8.52;100.00
60015;BME280;45867;52.480;6.056;2023-02-12T11:02:29;103993.97;;;8.78;100.00
60015;BME280;45867;52.480;6.056;2023-02-12T11:04:56;103994.56;;;8.88;100.00
60015;BME280;45867;52.480;6.056;2023-02-12T11:07:25;103998.88;;;8.89;100.00
60015;BME280;45867;52.480;6.056;2023-02-12T11:09:53;103982.47;;;9.17;100.00
60015;BME280;45867;52.480;6.056;2023-02-12T11:12:32;103990.38;;;9.55;100.00
60015;BME280;45867;52.480;6.056;2023-02-12T11:15:24;103984.59;;;9.81;100.00
60015;BME280;45867;52.480;6.056;2023-02-12T11:18:01;103989.72;;;9.68;100.00
60015;BME280;45867;52.480;6.056;2023-02-12T11:20:48;103987.34;;;9.58;100.00
60015;BME280;45867;52.480;6.056;2023-02-12T11:23:26;103977.25;;;9.24;100.00
60015;BME280;45867;52.480;6.056;2023-02-12T11:26:01;103978.44;;;9.21;100.00
60015;BME280;45867;52.480;6.056;2023-02-12T11:28:28;103976.69;;;9.14;100.00
60015;BME280;45867;52.480;6.056;2023-02-12T11:30:55;103978.50;;;9.13;100.00
60015;BME280;45867;52.480;6.056;2023-02-12T11:33:25;103972.03;;;9.16;100.00
60015;BME280;45867;52.480;6.056;2023-02-12T11:35:54;103962.31;;;8.93;100.00
60015;BME280;45867;52.480;6.056;2023-02-12T11:38:23;103959.78;;;8.77;100.00
60015;BME280;45867;52.480;6.056;2023-02-12T11:40:54;103961.72;;;8.83;100.00
60015;BME280;45867;52.480;6.056;2023-02-12T11:43:20;103972.31;;;8.83;100.00
60015;BME280;45867;52.480;6.056;2023-02-12T11:45:50;103964.66;;;8.88;100.00
60015;BME280;45867;52.480;6.056;2023-02-12T11:48:26;103961.44;;;8.78;100.00
60015;BME280;45867;52.480;6.056;2023-02-12T11:50:55;103964.50;;;8.66;100.00
60015;BME280;45867;52.480;6.056;2023-02-12T11:53:29;103974.53;;;8.71;100.00
60015;BME280;45867;52.480;6.056;2023-02-12T11:55:57;103970.66;;;8.59;100.00
60015;BME280;45867;52.480;6.056;2023-02-12T11:58:24;103971.66;;;8.58;100.00
60015;BME280;45867;52.480;6.056;2023-02-12T12:06:20;103962.41;;;8.54;100.00
60015;BME280;45867;52.480;6.056;2023-02-12T12:08:53;103961.59;;;8.53;100.00
60015;BME280;45867;52.480;6.056;2023-02-12T12:14:23;103950.69;;;8.56;100.00
60015;BME280;45867;52.480;6.056;2023-02-12T12:16:55;103951.84;;;8.54;100.00
60015;BME280;45867;52.480;6.056;2023-02-12T12:20:09;103952.03;;;8.52;100.00
60015;BME280;45867;52.480;6.056;2023-02-12T12:22:49;103951.03;;;8.53;100.00
60015;BME280;45867;52.480;6.056;2023-02-12T12:25:24;103955.50;;;8.53;100.00
60015;BME280;45867;52.480;6.056;2023-02-12T12:28:04;103944.28;;;8.51;100.00
60015;BME280;45867;52.480;6.056;2023-02-12T12:31:05;103947.47;;;8.46;100.00
60015;BME280;45867;52.480;6.056;2023-02-12T12:33:51;103949.75;;;8.49;100.00
60015;BME280;45867;52.480;6.056;2023-02-12T12:39:47;103943.34;;;8.43;100.00
60015;BME280;45867;52.480;6.056;2023-02-12T12:51:08;103939.38;;;8.39;100.00
60015;BME280;45867;52.480;6.056;2023-02-12T12:53:51;103937.72;;;8.38;100.00
60015;BME280;45867;52.480;6.056;2023-02-12T13:07:10;103937.00;;;8.21;100.00
60015;BME280;45867;52.480;6.056;2023-02-12T13:17:37;103918.22;;;8.16;100.00
60015;BME280;45867;52.480;6.056;2023-02-12T13:22:46;103921.66;;;8.17;100.00
60015;BME280;45867;52.480;6.056;2023-02-12T13:27:46;103913.97;;;7.99;100.00
60015;BME280;45867;52.480;6.056;2023-02-12T13:32:41;103917.16;;;7.94;100.00
60015;BME280;45867;52.480;6.056;2023-02-12T13:35:17;103906.59;;;7.94;100.00
60015;BME280;45867;52.480;6.056;2023-02-12T13:37:49;103908.59;;;7.92;100.00
60015;BME280;45867;52.480;6.056;2023-02-12T13:40:17;103908.59;;;7.92;100.00
60015;BME280;45867;52.480;6.056;2023-02-12T13:53:56;103902.13;;;7.95;100.00
60015;BME280;45867;52.480;6.056;2023-02-12T13:56:40;103909.59;;;7.91;100.00
60015;BME280;45867;52.480;6.056;2023-02-12T14:05:15;103889.94;;;7.94;100.00
60015;BME280;45867;52.480;6.056;2023-02-12T14:07:49;103902.13;;;7.95;100.00
60015;BME280;45867;52.480;6.056;2023-02-12T14:12:45;103891.66;;;7.78;100.00
60015;BME280;45867;52.480;6.056;2023-02-12T14:15:33;103889.47;;;7.82;100.00
60015;BME280;45867;52.480;6.056;2023-02-12T14:23:38;103880.75;;;7.82;100.00
60015;BME280;45867;52.480;6.056;2023-02-12T14:26:17;103878.13;;;7.73;100.00
60015;BME280;45867;52.480;6.056;2023-02-12T14:28:58;103875.38;;;7.67;100.00
60015;BME280;45867;52.480;6.056;2023-02-12T14:31:37;103877.16;;;7.66;100.00
60015;BME280;45867;52.480;6.056;2023-02-12T14:36:45;103880.50;;;7.60;100.00
60015;BME280;45867;52.480;6.056;2023-02-12T14:41:51;103887.44;;;7.61;100.00
60015;BME280;45867;52.480;6.056;2023-02-12T14:46:59;103888.91;;;7.55;100.00
60015;BME280;45867;52.480;6.056;2023-02-12T14:49:39;103888.91;;;7.55;100.00
60015;BME280;45867;52.480;6.056;2023-02-12T14:54:40;103891.41;;;7.57;100.00
60015;BME280;45867;52.480;6.056;2023-02-12T15:02:38;103878.72;;;7.44;100.00
60015;BME280;45867;52.480;6.056;2023-02-12T15:05:33;103882.22;;;7.45;100.00
60015;BME280;45867;52.480;6.056;2023-02-12T15:08:02;103885.00;;;7.43;100.00
60015;BME280;45867;52.480;6.056;2023-02-12T15:10:51;103895.25;;;7.38;100.00
60015;BME280;45867;52.480;6.056;2023-02-12T15:13:25;103886.53;;;7.38;100.00
60015;BME280;45867;52.480;6.056;2023-02-12T15:16:05;103887.69;;;7.35;100.00
60015;BME280;45867;52.480;6.056;2023-02-12T15:18:47;103885.84;;;7.36;100.00
60015;BME280;45867;52.480;6.056;2023-02-12T15:21:24;103881.41;;;7.36;100.00
60015;BME280;45867;52.480;6.056;2023-02-12T15:24:06;103878.63;;;7.29;100.00
60015;BME280;45867;52.480;6.056;2023-02-12T15:26:36;103874.16;;;7.30;100.00
60015;BME280;45867;52.480;6.056;2023-02-12T15:29:04;103876.00;;;7.29;100.00
60015;BME280;45867;52.480;6.056;2023-02-12T15:31:30;103878.16;;;7.26;100.00